PWSweather.com
Personal Weather Stations
Station Observations
KVAGLENALL
West Henrico, Glen Allen, VA 23060-6503

West HenricoGlen Allen, VA 23060-6503

Lat: 37.6554, Lon: -77.5693

Elevation: 273

Station Type: Davis Vantage Pro II

Latest ConditionsUpdated 12:15:31 PM EST Friday, Nov 21, 2014
Currently Today's Max Today's Min Today's Average
Temperature 42.2°F5.7°C 42.2°F5.7°C 25.4°F-3.7°C 33.0°F0.6°C
Dew Point 14.3°F-9.8°C 23.6°F-4.7°C 12.5°F-10.8°C 16.1°F-8.8°C
Winds 2.0 mph W3.2 kmh W 9.0 mph NE14.5 kmh NE - 1.6 mph 2.6 kmh
Wind Gusts 13.0 mph20.9 kmh 15.0 mph24.1 kmh - -
Humidity 32% 73% 31% 51%
Pressure 30.44 in1030.8 mb 30.46 in1031.5 mb 30.10 in1019.3 mb -
Hour Temp Dew Point Humidity Winds Wind Gusts Pressure Precip Precip Rate Daily Precip Total
12:15 PM 42.2°F5.7°C 14.3°F-9.8°C 32% 2.0 mph W3.2 kmh W 13.0 mph20.9 kmh 30.44 in1030.8 mb 0.00 in0.0 mm 0.00 in/hr0.0 mm/hr 0.00 in0.0 mm
12:01 PM 42.1°F5.6°C 13.5°F-10.3°C 31% 2.0 mph NW3.2 kmh NW 9.0 mph14.5 kmh 30.45 in1031.2 mb 0.00 in0.0 mm 0.00 in/hr0.0 mm/hr 0.00 in0.0 mm
11:45 AM 41.3°F5.2°C 14.3°F-9.8°C 33% 9.0 mph NE14.5 kmh NE 10.0 mph16.1 kmh 30.45 in1031.2 mb 0.00 in0.0 mm 0.00 in/hr0.0 mm/hr 0.00 in0.0 mm
11:30 AM 41.5°F5.3°C 13.7°F-10.2°C 32% 1.0 mph N1.6 kmh N 11.0 mph17.7 kmh 30.45 in1031.2 mb 0.00 in0.0 mm 0.00 in/hr0.0 mm/hr 0.00 in0.0 mm
11:15 AM 40.9°F4.9°C 12.5°F-10.8°C 31% 2.0 mph NNE3.2 kmh NNE 11.0 mph17.7 kmh 30.45 in1031.2 mb 0.00 in0.0 mm 0.00 in/hr0.0 mm/hr 0.00 in0.0 mm
11:00 AM 40.8°F4.9°C 13.1°F-10.5°C 32% 1.0 mph SSE1.6 kmh SSE 8.0 mph12.9 kmh 30.45 in1031.2 mb 0.00 in0.0 mm 0.00 in/hr0.0 mm/hr 0.00 in0.0 mm
10:45 AM 40.3°F4.6°C 13.4°F-10.3°C 33% 2.0 mph NE3.2 kmh NE 15.0 mph24.1 kmh 30.46 in1031.5 mb 0.00 in0.0 mm 0.00 in/hr0.0 mm/hr 0.00 in0.0 mm
10:30 AM 40.2°F4.6°C 13.3°F-10.4°C 33% 3.0 mph NW4.8 kmh NW 11.0 mph17.7 kmh 30.44 in1030.8 mb 0.00 in0.0 mm 0.00 in/hr0.0 mm/hr 0.00 in0.0 mm
10:15 AM 39.5°F4.2°C 14.0°F-10.0°C 35% Calm Calm 11.0 mph17.7 kmh 30.44 in1030.8 mb 0.00 in0.0 mm 0.00 in/hr0.0 mm/hr 0.00 in0.0 mm
10:01 AM 39.6°F4.2°C 12.8°F-10.7°C 33% 6.0 mph WNW9.7 kmh WNW 6.0 mph9.7 kmh 30.43 in1030.5 mb 0.00 in0.0 mm 0.00 in/hr0.0 mm/hr 0.00 in0.0 mm
09:45 AM 39.1°F3.9°C 13.0°F-10.6°C 34% 3.0 mph S4.8 kmh S 9.0 mph14.5 kmh 30.43 in1030.5 mb 0.00 in0.0 mm 0.00 in/hr0.0 mm/hr 0.00 in0.0 mm
09:30 AM 38.5°F3.6°C 14.4°F-9.8°C 37% 2.0 mph N3.2 kmh N 5.0 mph8.0 kmh 30.43 in1030.5 mb 0.00 in0.0 mm 0.00 in/hr0.0 mm/hr 0.00 in0.0 mm
09:15 AM 37.6°F3.1°C 16.6°F-8.6°C 42% 2.0 mph WSW3.2 kmh WSW 6.0 mph9.7 kmh 30.42 in1030.1 mb 0.00 in0.0 mm 0.00 in/hr0.0 mm/hr 0.00 in0.0 mm
09:01 AM 37.2°F2.9°C 15.1°F-9.4°C 40% 4.0 mph N6.4 kmh N 11.0 mph17.7 kmh 30.42 in1030.1 mb 0.00 in0.0 mm 0.00 in/hr0.0 mm/hr 0.00 in0.0 mm
08:45 AM 36.3°F2.4°C 14.8°F-9.6°C 41% 5.0 mph NNE8.0 kmh NNE 9.0 mph14.5 kmh 30.41 in1029.8 mb 0.00 in0.0 mm 0.00 in/hr0.0 mm/hr 0.00 in0.0 mm
08:30 AM 34.9°F1.6°C 14.1°F-9.9°C 42% 3.0 mph N4.8 kmh N 6.0 mph9.7 kmh 30.40 in1029.5 mb 0.00 in0.0 mm 0.00 in/hr0.0 mm/hr 0.00 in0.0 mm
08:15 AM 33.2°F0.7°C 14.7°F-9.6°C 46% 5.0 mph NE8.0 kmh NE 5.0 mph8.0 kmh 30.39 in1029.1 mb 0.00 in0.0 mm 0.00 in/hr0.0 mm/hr 0.00 in0.0 mm
08:01 AM 31.2°F-0.4°C 15.6°F-9.1°C 52% Calm Calm 3.0 mph4.8 kmh 30.38 in1028.8 mb 0.00 in0.0 mm 0.00 in/hr0.0 mm/hr 0.00 in0.0 mm
07:45 AM 28.4°F-2.0°C 15.6°F-9.1°C 58% Calm Calm 4.0 mph6.4 kmh 30.37 in1028.4 mb 0.00 in0.0 mm 0.00 in/hr0.0 mm/hr 0.00 in0.0 mm
07:30 AM 25.8°F-3.4°C 15.4°F-9.2°C 64% Calm Calm -- 30.36 in1028.1 mb 0.00 in0.0 mm 0.00 in/hr0.0 mm/hr 0.00 in0.0 mm
07:15 AM 25.4°F-3.7°C 14.3°F-9.8°C 62% Calm Calm -- 30.35 in1027.8 mb 0.00 in0.0 mm 0.00 in/hr0.0 mm/hr 0.00 in0.0 mm
07:00 AM 26.3°F-3.2°C 14.0°F-10.0°C 59% Calm Calm -- 30.34 in1027.4 mb 0.00 in0.0 mm 0.00 in/hr0.0 mm/hr 0.00 in0.0 mm
06:45 AM 26.9°F-2.8°C 13.3°F-10.4°C 56% Calm Calm -- 30.33 in1027.1 mb 0.00 in0.0 mm 0.00 in/hr0.0 mm/hr 0.00 in0.0 mm
06:30 AM 27.5°F-2.5°C 12.6°F-10.8°C 53% Calm Calm 3.0 mph4.8 kmh 30.31 in1026.4 mb 0.00 in0.0 mm 0.00 in/hr0.0 mm/hr 0.00 in0.0 mm
06:15 AM 27.9°F-2.3°C 12.6°F-10.8°C 52% Calm Calm 3.0 mph4.8 kmh 30.30 in1026.1 mb 0.00 in0.0 mm 0.00 in/hr0.0 mm/hr 0.00 in0.0 mm
06:00 AM 28.8°F-1.8°C 13.4°F-10.3°C 52% Calm Calm -- 30.29 in1025.7 mb 0.00 in0.0 mm 0.00 in/hr0.0 mm/hr 0.00 in0.0 mm
05:45 AM 29.8°F-1.2°C 13.9°F-10.1°C 51% 4.0 mph NNW6.4 kmh NNW 7.0 mph11.3 kmh 30.28 in1025.4 mb 0.00 in0.0 mm 0.00 in/hr0.0 mm/hr 0.00 in0.0 mm
05:30 AM 30.3°F-0.9°C 13.0°F-10.6°C 48% 4.0 mph N6.4 kmh N 10.0 mph16.1 kmh 30.27 in1025.1 mb 0.00 in0.0 mm 0.00 in/hr0.0 mm/hr 0.00 in0.0 mm
05:15 AM 31.0°F-0.6°C 14.6°F-9.7°C 50% 1.0 mph NNW1.6 kmh NNW 3.0 mph4.8 kmh 30.26 in1024.7 mb 0.00 in0.0 mm 0.00 in/hr0.0 mm/hr 0.00 in0.0 mm
05:00 AM 31.6°F-0.2°C 13.2°F-10.4°C 46% 1.0 mph NNE1.6 kmh NNE 7.0 mph11.3 kmh 30.25 in1024.4 mb 0.00 in0.0 mm 0.00 in/hr0.0 mm/hr 0.00 in0.0 mm
04:45 AM 31.3°F-0.4°C 14.4°F-9.8°C 49% 5.0 mph N8.0 kmh N 9.0 mph14.5 kmh 30.24 in1024.0 mb 0.00 in0.0 mm 0.00 in/hr0.0 mm/hr 0.00 in0.0 mm
04:30 AM 30.7°F-0.7°C 15.6°F-9.1°C 53% 2.0 mph NW3.2 kmh NW 4.0 mph6.4 kmh 30.23 in1023.7 mb 0.00 in0.0 mm 0.00 in/hr0.0 mm/hr 0.00 in0.0 mm
04:15 AM 28.8°F-1.8°C 16.7°F-8.5°C 60% 8.0 mph NNW12.9 kmh NNW 9.0 mph14.5 kmh 30.22 in1023.4 mb 0.00 in0.0 mm 0.00 in/hr0.0 mm/hr 0.00 in0.0 mm
04:00 AM 29.0°F-1.7°C 17.3°F-8.2°C 61% Calm Calm 1.0 mph1.6 kmh 30.21 in1023.0 mb 0.00 in0.0 mm 0.00 in/hr0.0 mm/hr 0.00 in0.0 mm
03:45 AM 29.8°F-1.2°C 17.3°F-8.2°C 59% Calm Calm -- 30.21 in1023.0 mb 0.00 in0.0 mm 0.00 in/hr0.0 mm/hr 0.00 in0.0 mm
03:30 AM 30.7°F-0.7°C 17.7°F-7.9°C 58% 1.0 mph NW1.6 kmh NW 1.0 mph1.6 kmh 30.19 in1022.4 mb 0.00 in0.0 mm 0.00 in/hr0.0 mm/hr 0.00 in0.0 mm
03:15 AM 30.3°F-0.9°C 17.3°F-8.2°C 58% 1.0 mph NNW1.6 kmh NNW 5.0 mph8.0 kmh 30.19 in1022.4 mb 0.00 in0.0 mm 0.00 in/hr0.0 mm/hr 0.00 in0.0 mm
03:01 AM 30.0°F-1.1°C 17.9°F-7.8°C 60% 1.0 mph N1.6 kmh N 2.0 mph3.2 kmh 30.19 in1022.4 mb 0.00 in0.0 mm 0.00 in/hr0.0 mm/hr 0.00 in0.0 mm
02:45 AM 29.8°F-1.2°C 18.4°F-7.6°C 62% Calm Calm 2.0 mph3.2 kmh 30.18 in1022.0 mb 0.00 in0.0 mm 0.00 in/hr0.0 mm/hr 0.00 in0.0 mm
02:32 AM 30.3°F-0.9°C 18.9°F-7.3°C 62% Calm Calm -- 30.17 in1021.7 mb 0.00 in0.0 mm 0.00 in/hr0.0 mm/hr 0.00 in0.0 mm
02:00 AM 30.7°F-0.7°C 19.3°F-7.1°C 62% Calm Calm 2.0 mph3.2 kmh 30.15 in1021.0 mb 0.00 in0.0 mm 0.00 in/hr0.0 mm/hr 0.00 in0.0 mm
01:45 AM 30.6°F-0.8°C 20.7°F-6.3°C 66% Calm Calm 1.0 mph1.6 kmh 30.15 in1021.0 mb 0.00 in0.0 mm 0.00 in/hr0.0 mm/hr 0.00 in0.0 mm
01:30 AM 30.6°F-0.8°C 22.1°F-5.5°C 70% Calm Calm 1.0 mph1.6 kmh 30.14 in1020.7 mb 0.00 in0.0 mm 0.00 in/hr0.0 mm/hr 0.00 in0.0 mm
01:15 AM 30.9°F-0.6°C 22.0°F-5.6°C 69% Calm Calm 1.0 mph1.6 kmh 30.13 in1020.3 mb 0.00 in0.0 mm 0.00 in/hr0.0 mm/hr 0.00 in0.0 mm
01:00 AM 31.0°F-0.6°C 21.8°F-5.7°C 68% Calm Calm -- 30.12 in1020.0 mb 0.00 in0.0 mm 0.00 in/hr0.0 mm/hr 0.00 in0.0 mm
12:45 AM 31.2°F-0.4°C 23.6°F-4.7°C 73% Calm Calm 1.0 mph1.6 kmh 30.12 in1020.0 mb 0.00 in0.0 mm 0.00 in/hr0.0 mm/hr 0.00 in0.0 mm
12:30 AM 31.3°F-0.4°C 23.4°F-4.8°C 72% Calm Calm 1.0 mph1.6 kmh 30.11 in1019.6 mb 0.00 in0.0 mm 0.00 in/hr0.0 mm/hr 0.00 in0.0 mm
12:15 AM 31.8°F-0.1°C 23.6°F-4.7°C 71% Calm Calm -- 30.10 in1019.3 mb 0.00 in0.0 mm 0.00 in/hr0.0 mm/hr 0.00 in0.0 mm
12:00 AM 32.7°F0.4°C 23.0°F-5.0°C 67% Calm Calm 1.0 mph1.6 kmh 30.10 in1019.3 mb 0.00 in0.0 mm 0.00 in/hr0.0 mm/hr 0.00 in0.0 mm